createdAt,value
2019-02-20T00:01:42.685Z,6.47
2019-02-20T00:04:12.430Z,6.50
2019-02-20T00:06:42.183Z,6.49
2019-02-20T00:09:11.944Z,6.51
2019-02-20T00:11:41.657Z,6.48
2019-02-20T00:14:11.781Z,6.48
2019-02-20T00:16:41.521Z,6.46
2019-02-20T00:19:11.298Z,6.46
2019-02-20T00:21:41.012Z,6.42
2019-02-20T00:24:10.776Z,6.40
2019-02-20T00:26:40.515Z,6.42
2019-02-20T00:29:10.291Z,6.43
2019-02-20T00:31:40.038Z,6.41
2019-02-20T00:34:09.774Z,6.40
2019-02-20T00:36:39.519Z,6.38
2019-02-20T00:39:09.650Z,6.39
2019-02-20T00:41:39.398Z,6.41
2019-02-20T00:44:22.963Z,6.41
2019-02-20T00:47:10.657Z,6.44
2019-02-20T00:49:41.546Z,6.44
2019-02-20T00:52:12.888Z,6.44
2019-02-20T00:54:42.654Z,6.40
2019-02-20T00:57:12.446Z,6.40
2019-02-20T00:59:42.162Z,6.43
2019-02-20T01:02:11.914Z,6.42
2019-02-20T01:04:41.665Z,6.42
2019-02-20T01:07:11.654Z,6.37
2019-02-20T01:09:41.411Z,6.34
2019-02-20T01:12:11.284Z,6.32
2019-02-20T01:14:41.172Z,6.33
2019-02-20T01:17:10.911Z,6.36
2019-02-20T01:19:40.600Z,6.37
2019-02-20T01:22:10.316Z,6.36
2019-02-20T01:24:40.081Z,6.30
2019-02-20T01:27:09.803Z,6.32
2019-02-20T01:29:39.553Z,6.33
2019-02-20T01:32:09.401Z,6.33
2019-02-20T01:34:39.181Z,6.35
2019-02-20T01:37:08.929Z,6.35
2019-02-20T01:39:38.683Z,6.36
2019-02-20T01:42:09.463Z,6.36
2019-02-20T01:44:39.256Z,6.37
2019-02-20T01:47:09.016Z,6.35
2019-02-20T01:49:38.772Z,6.37
2019-02-20T01:52:08.524Z,6.38
2019-02-20T01:54:38.237Z,6.41
2019-02-20T01:57:08.028Z,6.36
2019-02-20T01:59:37.754Z,6.41
2019-02-20T02:02:07.462Z,6.37
2019-02-20T02:04:37.204Z,6.38
2019-02-20T02:07:06.979Z,6.41
2019-02-20T02:09:36.734Z,6.40
2019-02-20T02:12:06.475Z,6.41
2019-02-20T02:14:36.230Z,6.43
2019-02-20T02:17:06.321Z,6.40
2019-02-20T02:19:36.082Z,6.42
2019-02-20T02:22:05.841Z,6.40
2019-02-20T02:24:35.591Z,6.43
2019-02-20T02:27:05.347Z,6.45
2019-02-20T02:29:35.076Z,6.46
2019-02-20T02:32:04.847Z,6.46
2019-02-20T02:34:34.572Z,6.45
2019-02-20T02:37:04.388Z,6.51
2019-02-20T02:39:34.138Z,6.50
2019-02-20T02:42:03.887Z,6.51
2019-02-20T02:44:34.378Z,6.49
2019-02-20T02:47:04.087Z,6.46
2019-02-20T02:49:33.859Z,6.50
2019-02-20T02:52:03.588Z,6.48
2019-02-20T02:54:33.349Z,6.51
2019-02-20T02:57:03.098Z,6.48
2019-02-20T02:59:32.850Z,6.49
2019-02-20T03:02:02.598Z,6.49
2019-02-20T03:04:32.354Z,6.51
2019-02-20T03:07:02.106Z,6.48
2019-02-20T03:09:31.823Z,6.50
2019-02-20T03:12:01.586Z,6.49
2019-02-20T03:14:31.322Z,6.49
2019-02-20T03:17:01.054Z,6.49
2019-02-20T03:19:30.803Z,6.46
2019-02-20T03:22:00.516Z,6.46
2019-02-20T03:24:30.286Z,6.47
2019-02-20T03:26:59.996Z,6.45
2019-02-20T03:29:29.786Z,6.45
2019-02-20T03:31:59.495Z,6.44
2019-02-20T03:34:29.241Z,6.43
2019-02-20T03:36:58.988Z,6.46
2019-02-20T03:39:28.807Z,6.37
2019-02-20T03:41:58.553Z,6.35
2019-02-20T03:44:28.312Z,6.39
2019-02-20T03:46:58.061Z,6.32
2019-02-20T03:49:27.776Z,6.40
2019-02-20T03:51:57.554Z,6.37
2019-02-20T03:54:27.264Z,6.40
2019-02-20T03:56:57.009Z,6.40
2019-02-20T03:59:26.957Z,6.36
2019-02-20T04:01:56.677Z,6.33
2019-02-20T04:04:26.450Z,6.36
2019-02-20T04:06:56.163Z,6.31
2019-02-20T04:09:25.910Z,6.30
2019-02-20T04:11:55.669Z,6.27
2019-02-20T04:14:25.397Z,6.23
2019-02-20T04:16:55.152Z,6.26
2019-02-20T04:19:24.878Z,6.30
2019-02-20T04:21:54.621Z,6.23
2019-02-20T04:24:24.378Z,6.26
2019-02-20T04:26:54.085Z,6.28
2019-02-20T04:29:23.868Z,6.32
2019-02-20T04:31:53.590Z,6.31
2019-02-20T04:34:23.367Z,6.25
2019-02-20T04:36:53.073Z,6.28
2019-02-20T04:39:22.815Z,6.27
2019-02-20T04:41:52.557Z,6.25
2019-02-20T04:44:22.334Z,6.28
2019-02-20T04:46:52.084Z,6.26
2019-02-20T04:49:21.835Z,6.26
2019-02-20T04:51:51.597Z,6.27
2019-02-20T04:54:21.299Z,6.26
2019-02-20T04:56:51.078Z,6.23
2019-02-20T04:59:20.794Z,6.23
2019-02-20T05:01:50.580Z,6.23
2019-02-20T05:04:20.370Z,6.21
2019-02-20T05:06:50.072Z,6.22
2019-02-20T05:09:19.850Z,6.25
2019-02-20T05:11:49.720Z,6.24
2019-02-20T05:14:19.533Z,6.23
2019-02-20T05:16:49.284Z,6.24
2019-02-20T05:19:19.004Z,6.23
2019-02-20T05:21:48.787Z,6.20
2019-02-20T05:24:24.775Z,6.21
2019-02-20T05:26:50.042Z,6.23
2019-02-20T05:29:19.776Z,6.21
2019-02-20T05:31:49.526Z,6.22
2019-02-20T05:34:19.287Z,6.26
2019-02-20T05:36:49.000Z,6.22
2019-02-20T05:39:18.794Z,6.23
2019-02-20T05:41:48.516Z,6.22
2019-02-20T05:44:18.265Z,6.23
2019-02-20T05:46:48.024Z,6.22
2019-02-20T05:49:17.798Z,6.19
2019-02-20T05:51:47.554Z,6.22
2019-02-20T05:54:17.310Z,6.20
2019-02-20T05:56:47.053Z,6.18
2019-02-20T05:59:16.766Z,6.20
2019-02-20T06:01:46.532Z,6.19
2019-02-20T06:04:16.241Z,6.21
2019-02-20T06:06:46.023Z,6.20
2019-02-20T06:09:15.739Z,6.21
2019-02-20T06:11:45.562Z,6.19
2019-02-20T06:14:15.276Z,6.22
2019-02-20T06:16:45.026Z,6.28
2019-02-20T06:19:14.780Z,6.29
2019-02-20T06:21:44.492Z,6.30
2019-02-20T06:24:14.614Z,6.30
2019-02-20T06:26:44.283Z,6.27
2019-02-20T06:29:13.949Z,6.28
2019-02-20T06:31:46.441Z,6.24
2019-02-20T06:34:22.013Z,6.27
2019-02-20T06:36:51.862Z,6.31
2019-02-20T06:39:21.641Z,6.31
2019-02-20T06:41:57.462Z,6.36
2019-02-20T06:44:30.875Z,6.32
2019-02-20T06:47:08.234Z,6.34
2019-02-20T06:49:38.016Z,6.35
2019-02-20T06:52:07.737Z,6.37
2019-02-20T06:54:42.025Z,6.36
2019-02-20T06:57:11.854Z,6.39
2019-02-20T06:59:54.191Z,6.36
2019-02-20T07:02:23.946Z,6.36
2019-02-20T07:05:26.016Z,6.37
2019-02-20T07:08:16.611Z,6.42
2019-02-20T07:11:09.025Z,6.47
2019-02-20T07:14:02.967Z,6.47
2019-02-20T07:16:57.367Z,6.52
2019-02-20T07:19:52.286Z,6.56
2019-02-20T07:22:43.191Z,6.62
2019-02-20T07:25:25.549Z,6.63
2019-02-20T07:28:22.453Z,6.68
2019-02-20T07:30:52.174Z,6.65
2019-02-20T07:33:21.958Z,6.68
2019-02-20T07:35:51.673Z,6.73
2019-02-20T07:38:21.439Z,6.78
2019-02-20T07:40:51.207Z,6.81
2019-02-20T07:43:20.931Z,6.82
2019-02-20T07:45:50.694Z,6.83
2019-02-20T07:48:20.416Z,6.88
2019-02-20T07:50:50.150Z,6.92
2019-02-20T07:53:19.893Z,6.93
2019-02-20T07:55:49.605Z,6.90
2019-02-20T07:58:19.372Z,6.98
2019-02-20T08:00:50.197Z,7.08
2019-02-20T08:03:20.016Z,7.08
2019-02-20T08:05:49.753Z,7.10
2019-02-20T08:08:20.142Z,7.13
2019-02-20T08:10:49.871Z,7.18
2019-02-20T08:13:19.629Z,7.18
2019-02-20T08:15:49.380Z,7.38
2019-02-20T08:18:19.107Z,7.57
2019-02-20T08:20:48.970Z,7.74
2019-02-20T08:23:23.200Z,7.79
2019-02-20T08:25:52.977Z,7.90
2019-02-20T08:28:22.719Z,7.93
2019-02-20T08:30:55.130Z,7.96
2019-02-20T08:33:24.861Z,7.97
2019-02-20T08:35:54.595Z,7.97
2019-02-20T08:38:24.989Z,7.97
2019-02-20T08:40:58.143Z,8.08
2019-02-20T08:43:29.512Z,8.05
2019-02-20T08:46:08.214Z,8.07
2019-02-20T08:48:42.169Z,8.21
2019-02-20T08:51:12.108Z,8.45
2019-02-20T08:53:41.848Z,8.34
2019-02-20T08:56:11.608Z,8.39
2019-02-20T08:58:41.342Z,8.56
2019-02-20T09:01:11.064Z,8.63
2019-02-20T09:03:49.845Z,8.63
2019-02-20T09:06:20.018Z,8.67
2019-02-20T09:08:54.300Z,8.59
2019-02-20T09:11:24.111Z,8.98
2019-02-20T09:13:53.834Z,8.99
2019-02-20T09:16:23.628Z,8.72
2019-02-20T09:18:53.527Z,8.67
2019-02-20T09:21:24.313Z,8.58
2019-02-20T09:23:58.559Z,8.55
2019-02-20T09:26:31.682Z,8.65
2019-02-20T09:29:01.592Z,8.57
2019-02-20T09:31:31.407Z,8.73
2019-02-20T09:34:01.188Z,8.77
2019-02-20T09:36:31.341Z,8.85
2019-02-20T09:39:20.610Z,8.92
2019-02-20T09:41:50.382Z,9.04
2019-02-20T09:44:20.091Z,9.30
2019-02-20T09:46:50.070Z,9.25
2019-02-20T09:49:21.383Z,9.14
2019-02-20T09:51:55.357Z,9.12
2019-02-20T09:54:25.539Z,9.14
2019-02-20T09:56:56.605Z,9.10
2019-02-20T09:59:26.333Z,9.15
2019-02-20T10:01:57.701Z,9.12
2019-02-20T10:04:27.502Z,9.11
2019-02-20T10:07:00.241Z,9.16
2019-02-20T10:09:30.496Z,9.19
2019-02-20T10:12:00.389Z,9.29
2019-02-20T10:14:36.873Z,9.38
2019-02-20T10:17:07.315Z,9.29
2019-02-20T10:19:38.608Z,9.36
2019-02-20T10:22:11.267Z,9.39
2019-02-20T10:24:46.747Z,9.26
2019-02-20T10:27:16.979Z,9.38
2019-02-20T10:29:55.248Z,9.50
2019-02-20T10:32:25.994Z,9.53
2019-02-20T10:34:57.294Z,9.71
2019-02-20T10:37:27.123Z,9.70
2019-02-20T10:39:58.339Z,9.70
2019-02-20T10:42:28.101Z,9.79
2019-02-20T10:44:59.114Z,9.67
2019-02-20T10:47:31.162Z,9.68
2019-02-20T10:50:02.093Z,9.58
2019-02-20T10:52:33.472Z,9.41
2019-02-20T10:55:09.119Z,9.48
2019-02-20T10:57:40.084Z,9.63
2019-02-20T11:00:23.629Z,9.70
2019-02-20T11:02:58.176Z,9.73
2019-02-20T11:05:33.359Z,9.73
2019-02-20T11:08:03.380Z,9.70
2019-02-20T11:10:40.682Z,9.63
2019-02-20T11:13:11.601Z,9.63
2019-02-20T11:15:41.379Z,9.50
2019-02-20T11:18:14.745Z,9.62
2019-02-20T11:20:48.778Z,9.61
2019-02-20T11:23:21.527Z,9.56
2019-02-20T11:25:57.391Z,9.62
2019-02-20T11:28:30.232Z,9.65
2019-02-20T11:31:08.875Z,9.53
2019-02-20T11:33:39.482Z,9.65
2019-02-20T11:36:11.063Z,9.62
2019-02-20T11:38:53.688Z,9.59
2019-02-20T11:41:23.464Z,9.73
2019-02-20T11:43:58.601Z,9.78
2019-02-20T11:46:30.963Z,9.71
2019-02-20T11:49:01.905Z,9.64
2019-02-20T11:51:35.980Z,9.70
2019-02-20T11:54:08.316Z,9.83
2019-02-20T11:56:42.432Z,9.89
2019-02-20T11:59:14.675Z,9.84
2019-02-20T12:01:44.376Z,9.95
2019-02-20T12:04:14.286Z,10.04
2019-02-20T12:06:45.716Z,9.91
2019-02-20T12:09:23.126Z,9.74
2019-02-20T12:11:54.673Z,9.68
2019-02-20T12:14:27.646Z,9.63
2019-02-20T12:17:00.297Z,9.80
2019-02-20T12:19:31.688Z,9.91
2019-02-20T12:22:04.566Z,9.96
2019-02-20T12:24:40.061Z,9.97
2019-02-20T12:27:09.858Z,9.89
2019-02-20T12:29:39.623Z,9.77
2019-02-20T12:32:09.379Z,9.78
2019-02-20T12:34:50.804Z,9.68
2019-02-20T12:37:25.069Z,9.79
2019-02-20T12:39:55.014Z,9.92
2019-02-20T12:42:31.623Z,9.82
2019-02-20T12:45:03.023Z,9.88
2019-02-20T12:47:34.170Z,9.96
2019-02-20T12:50:13.105Z,10.03
2019-02-20T12:52:42.887Z,10.02
2019-02-20T12:55:14.247Z,9.96
2019-02-20T12:57:47.652Z,9.96
2019-02-20T13:00:18.722Z,9.86
2019-02-20T13:02:48.521Z,9.90
2019-02-20T13:05:21.498Z,9.85
2019-02-20T13:07:59.277Z,9.77
2019-02-20T13:10:29.095Z,9.92
2019-02-20T13:13:02.111Z,10.00
2019-02-20T13:15:31.927Z,10.04
2019-02-20T13:18:04.871Z,10.08
2019-02-20T13:20:34.928Z,10.06
2019-02-20T13:23:11.857Z,10.03
2019-02-20T13:25:43.136Z,9.96
2019-02-20T13:28:12.957Z,10.00
2019-02-20T13:30:53.624Z,10.01
2019-02-20T13:33:23.191Z,10.01
2019-02-20T13:35:53.241Z,10.03
2019-02-20T13:38:22.995Z,10.02
2019-02-20T13:40:58.494Z,10.10
2019-02-20T13:43:30.441Z,10.07
2019-02-20T13:46:03.050Z,10.02
2019-02-20T13:48:32.802Z,9.96
2019-02-20T13:51:04.768Z,9.92
2019-02-20T13:53:34.545Z,9.89
2019-02-20T13:56:08.990Z,9.85
2019-02-20T13:58:40.697Z,9.76
2019-02-20T14:01:11.726Z,9.70
2019-02-20T14:03:41.533Z,9.73
2019-02-20T14:06:11.464Z,9.73
2019-02-20T14:08:44.304Z,9.68
2019-02-20T14:11:17.299Z,9.63
2019-02-20T14:13:47.566Z,9.63
2019-02-20T14:16:18.939Z,9.57
2019-02-20T14:18:48.827Z,9.59
2019-02-20T14:21:21.553Z,9.62
2019-02-20T14:23:51.654Z,9.63
2019-02-20T14:26:21.441Z,9.62
2019-02-20T14:28:54.546Z,9.58
2019-02-20T14:31:24.350Z,9.55
2019-02-20T14:33:58.064Z,9.51
2019-02-20T14:36:30.959Z,9.56
2019-02-20T14:39:02.255Z,9.51
2019-02-20T14:41:32.107Z,9.54
2019-02-20T14:44:03.406Z,9.61
2019-02-20T14:46:36.281Z,9.61
2019-02-20T14:49:06.209Z,9.66
2019-02-20T14:51:38.951Z,9.61
2019-02-20T14:54:13.266Z,9.62
2019-02-20T14:56:43.066Z,9.57
2019-02-20T14:59:12.868Z,9.55
2019-02-20T15:01:42.750Z,9.54
2019-02-20T15:04:14.611Z,9.56
2019-02-20T15:06:44.500Z,9.55
2019-02-20T15:09:14.303Z,9.52
2019-02-20T15:11:44.085Z,9.54
2019-02-20T15:14:13.934Z,9.49
2019-02-20T15:16:43.814Z,9.48
2019-02-20T15:19:15.263Z,9.47
2019-02-20T15:21:45.201Z,9.44
2019-02-20T15:24:15.367Z,9.49
2019-02-20T15:26:45.427Z,9.45
2019-02-20T15:29:15.332Z,9.45
2019-02-20T15:31:47.047Z,9.42
2019-02-20T15:34:16.932Z,9.37
2019-02-20T15:36:46.762Z,9.32
2019-02-20T15:39:16.586Z,9.31
2019-02-20T15:41:48.032Z,9.25
2019-02-20T15:44:17.837Z,9.20
2019-02-20T15:46:48.061Z,9.19
2019-02-20T15:49:17.908Z,9.19
2019-02-20T15:51:47.853Z,9.18
2019-02-20T15:54:17.728Z,9.18
2019-02-20T15:56:48.976Z,9.19
2019-02-20T15:59:18.911Z,9.16
2019-02-20T16:01:49.024Z,9.18
2019-02-20T16:04:19.050Z,9.09
2019-02-20T16:06:48.965Z,9.05
2019-02-20T16:09:18.830Z,9.03
2019-02-20T16:11:48.632Z,9.01
2019-02-20T16:14:18.385Z,8.96
2019-02-20T16:16:48.418Z,8.95
2019-02-20T16:19:18.151Z,8.90
2019-02-20T16:21:47.946Z,8.88
2019-02-20T16:24:17.699Z,8.84
2019-02-20T16:26:47.494Z,8.83
2019-02-20T16:29:17.254Z,8.84
2019-02-20T16:31:47.085Z,8.76
2019-02-20T16:34:17.027Z,8.77
2019-02-20T16:36:46.758Z,8.77
2019-02-20T16:39:17.333Z,8.75
2019-02-20T16:41:52.266Z,8.76
2019-02-20T16:44:22.063Z,8.78
2019-02-20T16:46:51.806Z,8.76
2019-02-20T16:49:32.233Z,8.76
2019-02-20T16:52:01.983Z,8.76
2019-02-20T16:54:31.801Z,8.71
2019-02-20T16:57:01.547Z,8.73
2019-02-20T16:59:31.366Z,8.74
2019-02-20T17:02:01.132Z,8.74
2019-02-20T17:04:30.940Z,8.70
2019-02-20T17:07:00.724Z,8.79
2019-02-20T17:09:30.504Z,8.76
2019-02-20T17:12:01.511Z,8.74
2019-02-20T17:14:31.433Z,8.73
2019-02-20T17:17:01.212Z,8.69
2019-02-20T17:19:30.947Z,8.67
2019-02-20T17:22:00.712Z,8.68
2019-02-20T17:24:30.483Z,8.69
2019-02-20T17:27:00.717Z,8.67
2019-02-20T17:29:30.754Z,8.71
2019-02-20T17:32:00.514Z,8.68
2019-02-20T17:34:30.453Z,8.67
2019-02-20T17:37:00.187Z,8.72
2019-02-20T17:39:30.008Z,8.69
2019-02-20T17:42:00.008Z,8.64
2019-02-20T17:44:30.052Z,8.68
2019-02-20T17:46:59.836Z,8.66
2019-02-20T17:49:31.296Z,8.67
2019-02-20T17:52:01.045Z,8.65
2019-02-20T17:54:30.975Z,8.60
2019-02-20T17:57:01.071Z,8.64
2019-02-20T17:59:30.848Z,8.60
2019-02-20T18:02:00.635Z,8.59
2019-02-20T18:04:30.423Z,8.61
2019-02-20T18:07:00.290Z,8.57
2019-02-20T18:09:30.064Z,8.56
2019-02-20T18:11:59.833Z,8.54
2019-02-20T18:14:29.595Z,8.52
2019-02-20T18:16:59.364Z,8.46
2019-02-20T18:19:29.177Z,8.48
2019-02-20T18:22:14.209Z,8.44
2019-02-20T18:24:49.454Z,8.44
2019-02-20T18:27:23.896Z,8.46
2019-02-20T18:29:55.256Z,8.39
2019-02-20T18:32:33.293Z,8.42
2019-02-20T18:35:12.866Z,8.37
2019-02-20T18:37:49.858Z,8.39
2019-02-20T18:40:28.183Z,8.37
2019-02-20T18:46:25.217Z,8.36
2019-02-20T18:49:25.893Z,8.34
2019-02-20T18:58:37.258Z,8.30
2019-02-20T19:01:03.402Z,8.26
2019-02-20T19:03:38.366Z,8.26
2019-02-20T19:06:19.488Z,8.26
2019-02-20T19:08:51.605Z,8.26
2019-02-20T19:11:51.059Z,8.22
2019-02-20T19:14:28.290Z,8.21
2019-02-20T19:17:24.090Z,8.20
2019-02-20T19:20:09.624Z,8.20
2019-02-20T19:22:56.774Z,8.18
2019-02-20T19:25:53.344Z,8.18
2019-02-20T19:28:45.835Z,8.16
2019-02-20T19:31:39.530Z,8.14
2019-02-20T19:34:40.050Z,8.16
2019-02-20T19:37:33.852Z,8.11
2019-02-20T19:40:13.444Z,8.10
2019-02-20T19:43:07.729Z,8.10
2019-02-20T19:45:42.792Z,8.09
2019-02-20T19:48:50.087Z,8.08
2019-02-20T19:51:39.947Z,8.09
2019-02-20T19:54:23.518Z,8.08
2019-02-20T19:57:09.425Z,8.12
2019-02-20T19:59:47.490Z,8.07
2019-02-20T20:02:38.091Z,8.05
2019-02-20T20:05:33.467Z,8.07
2019-02-20T20:08:17.227Z,8.07
2019-02-20T20:11:12.937Z,8.04
2019-02-20T20:14:08.923Z,7.99
2019-02-20T20:17:15.103Z,8.01
2019-02-20T20:20:03.569Z,7.96
2019-02-20T20:22:53.708Z,7.97
2019-02-20T20:25:27.389Z,7.99
2019-02-20T20:28:07.430Z,7.99
2019-02-20T20:30:49.906Z,7.97
2019-02-20T20:33:43.290Z,7.96
2019-02-20T20:36:19.563Z,7.99
2019-02-20T20:39:14.545Z,7.99
2019-02-20T20:41:57.395Z,7.94
2019-02-20T20:44:34.413Z,7.96
2019-02-20T20:47:31.640Z,7.92
2019-02-20T20:50:11.333Z,7.93
2019-02-20T20:53:03.883Z,7.92
2019-02-20T20:56:11.746Z,7.92
2019-02-20T20:59:02.905Z,7.92
2019-02-20T21:01:51.210Z,7.91
2019-02-20T21:04:30.274Z,7.91
2019-02-20T21:07:21.980Z,7.86
2019-02-20T21:09:58.291Z,7.90
2019-02-20T21:12:55.551Z,7.89
2019-02-20T21:15:47.742Z,7.88
2019-02-20T21:18:26.889Z,7.91
2019-02-20T21:21:07.054Z,7.94
2019-02-20T21:24:09.447Z,7.92
2019-02-20T21:26:55.054Z,7.87
2019-02-20T21:29:52.905Z,7.86
2019-02-20T21:32:44.604Z,7.85
2019-02-20T21:35:21.383Z,7.91
2019-02-20T21:38:07.384Z,7.88
2019-02-20T21:40:40.219Z,7.91
2019-02-20T21:43:32.216Z,7.87
2019-02-20T21:46:16.964Z,7.86
2019-02-20T21:49:01.910Z,7.88
2019-02-20T21:51:34.758Z,7.87
2019-02-20T21:54:31.167Z,7.86
2019-02-20T21:57:09.851Z,7.90
2019-02-20T21:59:54.318Z,7.89
2019-02-20T22:02:32.970Z,7.91
2019-02-20T22:05:30.299Z,7.88
2019-02-20T22:08:14.734Z,7.89
2019-02-20T22:10:56.505Z,7.88
2019-02-20T22:13:37.869Z,7.88
2019-02-20T22:16:10.770Z,7.87
2019-02-20T22:18:58.685Z,7.86
2019-02-20T22:22:00.262Z,7.88
2019-02-20T22:24:48.099Z,7.88
2019-02-20T22:27:39.071Z,7.84
2019-02-20T22:30:29.381Z,7.87
2019-02-20T22:33:18.732Z,7.82
2019-02-20T22:35:59.827Z,7.86
2019-02-20T22:38:44.827Z,7.83
2019-02-20T22:41:32.567Z,7.79
2019-02-20T22:44:31.190Z,7.82
2019-02-20T22:47:10.077Z,7.83
2019-02-20T22:49:56.526Z,7.82
2019-02-20T22:52:35.145Z,7.80
2019-02-20T22:55:25.951Z,7.81
2019-02-20T22:58:04.564Z,7.80
2019-02-20T23:01:01.892Z,7.83
2019-02-20T23:03:43.496Z,7.83
2019-02-20T23:06:22.025Z,7.80
2019-02-20T23:09:05.046Z,7.80
2019-02-20T23:11:55.732Z,7.83
2019-02-20T23:14:43.646Z,7.79
2019-02-20T23:17:13.433Z,7.77
2019-02-20T23:19:43.162Z,7.76
2019-02-20T23:22:12.842Z,7.77
2019-02-20T23:24:42.640Z,7.78
2019-02-20T23:27:12.414Z,7.78
2019-02-20T23:29:42.099Z,7.77
2019-02-20T23:32:11.780Z,7.80
2019-02-20T23:34:41.465Z,7.76
2019-02-20T23:37:11.181Z,7.78
2019-02-20T23:39:40.937Z,7.75
2019-02-20T23:42:10.656Z,7.78
2019-02-20T23:44:40.413Z,7.74
2019-02-20T23:47:10.139Z,7.69
2019-02-20T23:49:39.889Z,7.68
2019-02-20T23:52:09.612Z,7.67
2019-02-20T23:54:39.392Z,7.71
2019-02-20T23:57:09.094Z,7.70
2019-02-20T23:59:38.841Z,7.72
